Lakehurst NAES /Maxfield Field


Codes: KNEL/NEL
Name: Lakehurst NAES /Maxfield Field
City: Lakehurst
Country: United States
Elevation: 101 ft.
Wikipedia:

Photos at Lakehurst NAES /Maxfield Field


   Photos courtesy of SpottingLog. You can add your own sightings and photos by signing up for a free trial today.



No photos found.

Weather at Lakehurst NAES /Maxfield Field


Time (UTC)DescriptionTempratureWindCloud coverageVisibilityPressureHumidity
18-Apr-2024 00:00Overcast Clouds12°C7 mph, SE100%10000m1016hPa68%
18-Apr-2024 03:00Overcast Clouds12°C9 mph, E100%10000m1015hPa76%
18-Apr-2024 06:00Light Rain12°C9 mph, E100%10000m1014hPa94%
18-Apr-2024 09:00Light Rain11°C9 mph, NE100%593m1013hPa97%
18-Apr-2024 12:00Light Rain10°C9 mph, NE100%8686m1014hPa95%
18-Apr-2024 15:00Light Rain10°C9 mph, NE100%10000m1016hPa92%
18-Apr-2024 18:00Overcast Clouds10°C11 mph, NE100%10000m1018hPa85%
18-Apr-2024 21:00Overcast Clouds9°C11 mph, NE100%10000m1019hPa84%
19-Apr-2024 00:00Overcast Clouds8°C9 mph, NE100%10000m1020hPa84%
19-Apr-2024 03:00Overcast Clouds8°C9 mph, NE100%10000m1020hPa82%
19-Apr-2024 06:00Overcast Clouds8°C7 mph, E100%10000m1020hPa78%
19-Apr-2024 09:00Broken Clouds7°C7 mph, E64%10000m1020hPa82%
19-Apr-2024 12:00Scattered Clouds9°C7 mph, E48%10000m1021hPa72%
19-Apr-2024 15:00Overcast Clouds12°C9 mph, E100%10000m1020hPa59%
19-Apr-2024 18:00Overcast Clouds12°C7 mph, SE100%10000m1019hPa67%
19-Apr-2024 21:00Overcast Clouds13°C9 mph, SE100%10000m1017hPa70%
20-Apr-2024 00:00Overcast Clouds10°C7 mph, SE97%10000m1017hPa85%
20-Apr-2024 03:00Overcast Clouds9°C4 mph, S86%10000m1017hPa94%
20-Apr-2024 06:00Overcast Clouds10°C4 mph, SW93%10000m1016hPa91%
20-Apr-2024 09:00Overcast Clouds11°C4 mph, W100%10000m1016hPa91%
20-Apr-2024 12:00Overcast Clouds11°C4 mph, NW100%10000m1017hPa89%
20-Apr-2024 15:00Overcast Clouds13°C7 mph, NW100%10000m1016hPa59%
20-Apr-2024 18:00Overcast Clouds18°C11 mph, NW100%10000m1014hPa31%
20-Apr-2024 21:00Broken Clouds16°C16 mph, NW73%10000m1014hPa44%
21-Apr-2024 00:00Overcast Clouds13°C9 mph, W86%10000m1015hPa53%
21-Apr-2024 03:00Clear Sky8°C7 mph, NW6%10000m1017hPa71%
21-Apr-2024 06:00Clear Sky6°C7 mph, NW3%10000m1017hPa72%
21-Apr-2024 09:00Clear Sky5°C7 mph, NW0%10000m1018hPa71%
21-Apr-2024 12:00Clear Sky7°C7 mph, NW2%10000m1020hPa58%
21-Apr-2024 15:00Scattered Clouds12°C9 mph, NW43%10000m1019hPa35%
21-Apr-2024 18:00Broken Clouds14°C11 mph, W72%10000m1017hPa30%
21-Apr-2024 21:00Overcast Clouds14°C11 mph, W100%10000m1015hPa34%
22-Apr-2024 00:00Overcast Clouds11°C7 mph, W100%10000m1016hPa48%
22-Apr-2024 03:00Overcast Clouds10°C4 mph, SW100%10000m1017hPa53%
22-Apr-2024 06:00Overcast Clouds8°C4 mph, W100%10000m1016hPa62%
22-Apr-2024 09:00Overcast Clouds6°C4 mph, NW99%10000m1017hPa68%
22-Apr-2024 12:00Broken Clouds9°C4 mph, NW70%10000m1018hPa51%
22-Apr-2024 15:00Clear Sky15°C4 mph, NW2%10000m1018hPa31%
22-Apr-2024 18:00Clear Sky18°C4 mph, NW2%10000m1017hPa28%
22-Apr-2024 21:00Clear Sky18°C4 mph, N8%10000m1015hPa30%